Time;durP1;ratioP1;P1;durP2;ratioP2;P2;SDS_P1;SDS_P2;PMS_P1;PMS_P2;Temp;Humidity;BMP_temperature;BMP_pressure;BME280_temperature;BME280_humidity;BME280_pressure;Samples;Min_cycle;Max_cycle;Signal;HPM_P1;HPM_P2
2023/11/29 00:00:27;;;;;;;8.52;1.42;;;;;;;4.03;100.00;100356.41;5093547;28;20494;-76
2023/11/29 00:02:52;;;;;;;10.40;1.60;;;;;;;4.04;100.00;100349.34;5093963;28;20036;-78
2023/11/29 00:05:19;;;;;;;4.25;1.25;;;;;;;4.08;100.00;100363.16;5075850;28;20036;-77
2023/11/29 00:07:44;;;;;;;6.30;1.58;;;;;;;4.03;100.00;100353.78;5093848;28;20489;-76
2023/11/29 00:10:10;;;;;;;5.97;1.42;;;;;;;3.97;100.00;100354.22;5094041;28;20044;-75
2023/11/29 00:12:36;;;;;;;5.03;1.27;;;;;;;3.99;100.00;100340.94;5093747;28;20033;-75
2023/11/29 00:15:02;;;;;;;7.40;1.20;;;;;;;3.98;100.00;100350.59;5093586;28;20032;-76
2023/11/29 00:17:27;;;;;;;6.38;1.85;;;;;;;3.98;100.00;100342.72;5094134;28;20087;-77
2023/11/29 00:19:53;;;;;;;11.20;1.58;;;;;;;4.04;100.00;100342.28;5093632;28;20020;-76
2023/11/29 00:22:18;;;;;;;4.30;1.23;;;;;;;4.10;100.00;100332.28;5075607;28;20055;-75
2023/11/29 00:24:47;;;;;;;5.63;1.33;;;;;;;4.12;100.00;100340.88;5093592;28;20048;-74
2023/11/29 00:27:16;;;;;;;5.13;1.15;;;;;;;4.14;100.00;100331.94;5093699;28;20062;-75
2023/11/29 00:29:42;;;;;;;7.30;1.20;;;;;;;4.17;100.00;100334.34;5093211;28;20380;-74
2023/11/29 00:32:07;;;;;;;7.32;1.30;;;;;;;4.11;100.00;100326.06;5075569;28;20497;-75
2023/11/29 00:34:32;;;;;;;5.53;1.33;;;;;;;4.09;100.00;100309.50;5093304;28;20409;-76
2023/11/29 00:36:59;;;;;;;4.97;1.35;;;;;;;4.16;100.00;100303.69;5074862;28;20036;-74
2023/11/29 00:39:24;;;;;;;3.17;1.40;;;;;;;4.24;100.00;100317.16;5093368;28;20088;-76
2023/11/29 00:41:49;;;;;;;9.45;1.55;;;;;;;4.23;100.00;100304.94;5093068;28;20031;-75
2023/11/29 00:44:15;;;;;;;3.00;1.10;;;;;;;4.32;100.00;100310.50;5075196;28;20039;-75
2023/11/29 00:46:40;;;;;;;8.65;1.52;;;;;;;4.32;100.00;100305.22;5093563;28;20028;-74
2023/11/29 00:49:07;;;;;;;6.70;1.48;;;;;;;4.32;100.00;100302.59;5093125;28;20460;-75
2023/11/29 00:51:32;;;;;;;2.85;1.13;;;;;;;4.33;100.00;100299.00;5093086;28;20032;-75
2023/11/29 00:53:57;;;;;;;8.95;2.20;;;;;;;4.31;100.00;100290.38;5093218;28;20522;-76
2023/11/29 00:56:23;;;;;;;12.15;1.67;;;;;;;4.34;100.00;100305.94;5093136;28;20031;-75
2023/11/29 00:58:48;;;;;;;8.60;1.45;;;;;;;4.32;100.00;100298.16;5092807;28;20115;-75
2023/11/29 01:01:15;;;;;;;1.85;1.00;;;;;;;4.22;100.00;100290.09;5092662;28;20075;-74
2023/11/29 01:03:40;;;;;;;0.82;0.70;;;;;;;4.09;100.00;100294.59;5092520;28;20040;-77
2023/11/29 01:06:06;;;;;;;1.25;0.90;;;;;;;4.05;100.00;100277.31;5092798;28;20468;-75
2023/11/29 01:08:32;;;;;;;3.35;1.38;;;;;;;3.96;100.00;100283.25;5092859;28;20032;-75
2023/11/29 01:10:57;;;;;;;4.97;1.17;;;;;;;3.91;100.00;100278.28;5093012;28;20054;-75
2023/11/29 01:13:22;;;;;;;4.28;1.70;;;;;;;3.89;100.00;100262.59;5093011;28;20410;-74
2023/11/29 01:15:48;;;;;;;9.77;1.40;;;;;;;3.98;100.00;100269.00;5092677;28;20064;-73
2023/11/29 01:18:14;;;;;;;13.20;1.80;;;;;;;4.09;100.00;100264.75;5092979;28;20437;-75
2023/11/29 01:20:41;;;;;;;5.93;1.33;;;;;;;4.14;100.00;100267.91;5092989;28;20028;-75
2023/11/29 01:23:06;;;;;;;4.07;1.73;;;;;;;4.18;100.00;100278.09;5092561;28;20035;-74
2023/11/29 01:25:32;;;;;;;4.03;1.27;;;;;;;4.12;100.00;100273.28;5092254;28;20028;-75
2023/11/29 01:27:57;;;;;;;5.55;1.50;;;;;;;4.06;100.00;100277.19;5074522;28;20071;-75
2023/11/29 01:30:23;;;;;;;7.60;1.77;;;;;;;4.11;100.00;100253.16;5092507;28;20090;-75
2023/11/29 01:32:48;;;;;;;4.18;1.70;;;;;;;4.04;100.00;100255.38;5092344;28;20398;-76
2023/11/29 01:35:14;;;;;;;7.68;1.45;;;;;;;4.08;100.00;100258.66;5074215;28;20384;-74
2023/11/29 01:37:39;;;;;;;9.50;1.52;;;;;;;4.12;100.00;100259.25;5092207;28;20032;-73
2023/11/29 01:40:07;;;;;;;9.75;2.17;;;;;;;4.08;100.00;100274.47;5092595;28;20039;-73
2023/11/29 01:42:32;;;;;;;7.63;1.50;;;;;;;4.11;100.00;100262.88;5092225;28;20033;-75
2023/11/29 01:44:58;;;;;;;8.90;1.45;;;;;;;4.06;100.00;100260.53;5092290;28;20090;-75
2023/11/29 01:47:23;;;;;;;9.30;1.63;;;;;;;4.04;100.00;100270.34;5092515;28;20063;-75
2023/11/29 01:49:50;;;;;;;7.53;1.67;;;;;;;4.10;100.00;100266.44;5091814;28;20051;-76
2023/11/29 01:52:16;;;;;;;6.80;1.42;;;;;;;4.08;100.00;100271.81;5092448;28;20448;-75
2023/11/29 01:54:42;;;;;;;5.95;1.10;;;;;;;4.08;100.00;100242.88;5074285;28;20036;-74
2023/11/29 01:57:07;;;;;;;4.93;1.00;;;;;;;4.11;100.00;100266.34;5092057;28;20050;-75
2023/11/29 01:59:34;;;;;;;8.50;2.22;;;;;;;4.11;100.00;100247.91;5092328;28;20032;-73
2023/11/29 02:02:00;;;;;;;8.27;1.88;;;;;;;4.13;100.00;100264.41;5092352;28;20068;-74
2023/11/29 02:04:26;;;;;;;7.63;1.55;;;;;;;4.16;100.00;100255.47;5092149;28;20088;-74
2023/11/29 02:06:51;;;;;;;8.35;1.20;;;;;;;4.21;100.00;100267.34;5092647;28;20032;-74
2023/11/29 02:09:17;;;;;;;14.65;2.88;;;;;;;4.13;100.00;100267.06;5092207;28;20044;-75
2023/11/29 02:11:44;;;;;;;6.55;1.52;;;;;;;4.06;100.00;100271.94;5074164;28;20117;-74
2023/11/29 02:14:10;;;;;;;15.48;1.80;;;;;;;3.98;100.00;100263.72;5092126;28;20036;-74
2023/11/29 02:16:36;;;;;;;11.68;1.75;;;;;;;3.86;100.00;100270.72;5092163;28;20357;-74
2023/11/29 02:19:02;;;;;;;9.13;1.70;;;;;;;3.71;100.00;100275.28;5093927;28;20024;-74
2023/11/29 02:21:27;;;;;;;7.10;1.30;;;;;;;3.37;100.00;100289.13;5096310;28;20115;-74
2023/11/29 02:24:04;;;;;;;10.18;1.25;;;;;;;2.93;100.00;100285.97;5095759;28;20440;-73
2023/11/29 02:26:29;;;;;;;0.80;0.43;;;;;;;2.37;100.00;100297.47;5096621;28;20028;-77
2023/11/29 02:28:55;;;;;;;4.57;0.73;;;;;;;2.06;100.00;100256.63;5095973;28;20089;-75
2023/11/29 02:31:20;;;;;;;3.03;1.00;;;;;;;1.89;100.00;100249.84;5095899;28;20085;-73
2023/11/29 02:33:45;;;;;;;1.50;0.73;;;;;;;1.71;100.00;100250.03;5077691;28;20024;-74
2023/11/29 02:36:11;;;;;;;7.15;0.98;;;;;;;1.63;100.00;100240.97;5095734;28;20480;-74
2023/11/29 02:38:36;;;;;;;5.72;1.05;;;;;;;1.63;100.00;100254.09;5077805;28;20127;-75
2023/11/29 02:41:02;;;;;;;19.48;2.13;;;;;;;1.74;100.00;100256.91;5095585;28;20350;-74
2023/11/29 02:43:27;;;;;;;15.13;1.42;;;;;;;1.87;100.00;100242.06;5095725;28;20043;-76
2023/11/29 02:45:52;;;;;;;6.93;1.50;;;;;;;1.96;100.00;100235.38;5095899;28;20028;-74
2023/11/29 02:48:18;;;;;;;5.50;1.30;;;;;;;1.98;100.00;100219.53;5095717;28;20040;-74
2023/11/29 02:50:43;;;;;;;4.95;1.17;;;;;;;2.05;100.00;100220.84;5095290;28;20472;-74
2023/11/29 02:53:09;;;;;;;14.85;2.05;;;;;;;2.15;100.00;100216.69;5095487;28;20429;-75
2023/11/29 02:55:34;;;;;;;6.60;1.35;;;;;;;2.34;100.00;100218.06;5095509;28;20388;-76
2023/11/29 02:58:01;;;;;;;7.60;1.63;;;;;;;2.49;100.00;100200.47;5095688;28;20119;-74
2023/11/29 03:00:26;;;;;;;6.25;1.20;;;;;;;2.69;100.00;100197.34;5095278;28;20048;-76
2023/11/29 03:02:52;;;;;;;12.48;1.40;;;;;;;2.80;100.00;100199.22;5095728;28;20469;-77
2023/11/29 03:05:17;;;;;;;6.30;1.13;;;;;;;2.90;100.00;100184.53;5095021;28;20036;-75
2023/11/29 03:07:42;;;;;;;10.15;1.30;;;;;;;2.99;100.00;100185.69;5095272;28;20062;-74
2023/11/29 03:10:08;;;;;;;9.85;1.80;;;;;;;3.02;100.00;100174.94;5095711;28;20047;-74
2023/11/29 03:12:33;;;;;;;2.80;1.00;;;;;;;3.06;100.00;100176.44;5095426;28;20039;-75
2023/11/29 03:14:58;;;;;;;14.70;1.73;;;;;;;3.10;100.00;100171.78;5076594;28;20060;-75
2023/11/29 03:17:24;;;;;;;6.05;1.50;;;;;;;3.15;100.00;100174.91;5094950;28;20028;-75
2023/11/29 03:19:49;;;;;;;5.63;1.50;;;;;;;3.20;100.00;100161.47;5094938;28;20036;-75
2023/11/29 03:22:14;;;;;;;7.15;1.83;;;;;;;3.36;100.00;100167.31;5094693;28;20031;-76
2023/11/29 03:24:40;;;;;;;10.43;1.52;;;;;;;3.50;100.00;100193.47;5094780;28;20032;-76
2023/11/29 03:27:05;;;;;;;6.38;1.40;;;;;;;3.46;100.00;100191.16;5094575;28;20028;-75
2023/11/29 03:29:31;;;;;;;3.05;0.70;;;;;;;3.08;100.00;100178.94;5094113;28;20028;-76
2023/11/29 03:31:56;;;;;;;12.98;1.73;;;;;;;2.78;100.00;100183.56;5093881;28;20104;-76
2023/11/29 03:34:21;;;;;;;9.55;1.35;;;;;;;2.61;100.00;100186.50;5094720;28;20077;-77
2023/11/29 03:36:47;;;;;;;13.10;1.75;;;;;;;2.51;100.00;100175.78;5059911;28;20039;-75
2023/11/29 03:39:13;;;;;;;13.27;2.00;;;;;;;2.40;100.00;100162.53;5094861;28;20036;-77
2023/11/29 03:41:38;;;;;;;9.40;1.80;;;;;;;2.27;100.00;100157.28;5095027;28;20032;-77
2023/11/29 03:44:04;;;;;;;32.60;2.58;;;;;;;2.18;100.00;100155.25;5094708;28;20050;-77
2023/11/29 03:46:29;;;;;;;11.30;1.30;;;;;;;2.16;100.00;100149.25;5094635;28;20067;-73
2023/11/29 03:48:55;;;;;;;6.40;1.25;;;;;;;2.15;100.00;100148.44;5094580;28;20040;-77
2023/11/29 03:51:20;;;;;;;11.27;2.22;;;;;;;2.15;100.00;100145.81;5094871;28;20047;-76
2023/11/29 03:53:45;;;;;;;5.95;1.15;;;;;;;2.16;100.00;100139.59;5059905;28;20383;-76
2023/11/29 03:56:11;;;;;;;10.00;1.13;;;;;;;2.27;100.00;100144.16;5094312;28;20471;-78
2023/11/29 03:58:36;;;;;;;7.70;1.38;;;;;;;2.36;100.00;100146.16;5094292;28;20480;-76
2023/11/29 04:01:03;;;;;;;11.65;1.80;;;;;;;2.41;100.00;100145.84;5075946;28;20055;-76
2023/11/29 04:03:28;;;;;;;11.85;1.35;;;;;;;2.40;100.00;100146.78;5094389;28;20541;-76
2023/11/29 04:05:53;;;;;;;10.68;1.23;;;;;;;2.50;100.00;100144.38;5094215;28;20028;-77
2023/11/29 04:08:19;;;;;;;8.98;1.30;;;;;;;2.52;100.00;100139.84;5094385;28;20181;-75
2023/11/29 04:10:44;;;;;;;11.65;1.10;;;;;;;2.46;100.00;100138.47;5094135;28;20036;-75
2023/11/29 04:13:09;;;;;;;9.10;1.38;;;;;;;2.43;100.00;100130.81;5093723;28;20032;-75
2023/11/29 04:15:35;;;;;;;9.00;1.27;;;;;;;2.41;100.00;100125.66;5075824;28;20495;-77
2023/11/29 04:18:00;;;;;;;3.38;0.70;;;;;;;2.44;100.00;100108.88;5094527;28;20315;-75
2023/11/29 04:20:25;;;;;;;9.15;1.20;;;;;;;2.49;100.00;100095.41;5093912;28;20472;-75
2023/11/29 04:22:51;;;;;;;9.25;1.08;;;;;;;2.53;100.00;100117.91;5093934;28;20050;-76
2023/11/29 04:25:18;;;;;;;3.72;1.00;;;;;;;2.58;100.00;100134.19;5093780;28;20035;-76
2023/11/29 04:27:43;;;;;;;4.15;0.80;;;;;;;2.59;100.00;100144.56;5094271;28;20123;-76
2023/11/29 04:30:09;;;;;;;14.07;1.75;;;;;;;2.62;100.00;100140.91;5093392;28;20119;-76
2023/11/29 04:32:34;;;;;;;4.90;1.48;;;;;;;2.59;100.00;100130.63;5093618;28;20051;-77
2023/11/29 04:35:00;;;;;;;4.63;1.15;;;;;;;2.51;100.00;100122.41;5093566;28;20024;-76
2023/11/29 04:37:25;;;;;;;6.53;0.85;;;;;;;2.47;100.00;100113.91;5093277;28;20032;-77
2023/11/29 04:39:50;;;;;;;10.60;1.17;;;;;;;2.51;100.00;100122.41;5093318;28;20068;-76
2023/11/29 04:42:16;;;;;;;4.18;1.00;;;;;;;2.62;100.00;100136.47;5092870;28;20032;-76
2023/11/29 04:44:41;;;;;;;6.97;1.05;;;;;;;2.64;100.00;100139.88;5093011;28;20030;-76
2023/11/29 04:47:06;;;;;;;5.63;1.10;;;;;;;2.61;100.00;100132.19;5093692;28;20183;-77
2023/11/29 04:49:32;;;;;;;2.55;0.73;;;;;;;2.54;100.00;100138.81;5093296;28;20031;-76
2023/11/29 04:51:57;;;;;;;8.07;1.30;;;;;;;2.51;100.00;100148.66;5093200;28;20444;-76
2023/11/29 04:54:23;;;;;;;6.85;1.00;;;;;;;2.42;100.00;100156.25;5092893;28;20524;-77
2023/11/29 04:56:48;;;;;;;5.53;0.80;;;;;;;2.23;100.00;100154.00;5092836;28;20051;-75
2023/11/29 04:59:14;;;;;;;1.67;0.50;;;;;;;2.02;100.00;100143.13;5092608;28;20116;-76
2023/11/29 05:01:40;;;;;;;1.50;0.57;;;;;;;1.88;100.00;100137.94;5090930;28;20094;-75
2023/11/29 05:04:05;;;;;;;6.60;0.63;;;;;;;1.80;100.00;100137.63;5093141;28;20333;-75
2023/11/29 05:06:31;;;;;;;8.05;0.60;;;;;;;1.77;100.00;100121.13;5092686;28;20028;-75
2023/11/29 05:08:57;;;;;;;2.20;0.70;;;;;;;1.75;100.00;100122.19;5092993;28;20098;-75
2023/11/29 05:11:23;;;;;;;7.32;0.85;;;;;;;1.74;100.00;100115.25;5092943;28;20039;-75
2023/11/29 05:13:48;;;;;;;1.25;0.80;;;;;;;1.75;100.00;100114.31;5092592;28;20357;-75
2023/11/29 05:16:14;;;;;;;2.67;0.70;;;;;;;1.80;100.00;100117.47;5074427;28;20032;-76
2023/11/29 05:18:39;;;;;;;2.30;0.73;;;;;;;1.77;100.00;100121.13;5092220;28;20036;-76
2023/11/29 05:21:05;;;;;;;11.32;1.30;;;;;;;1.80;100.00;100127.13;5092553;28;20032;-74
2023/11/29 05:23:31;;;;;;;6.00;1.00;;;;;;;1.86;100.00;100126.72;5092115;28;20364;-74
2023/11/29 05:25:56;;;;;;;10.05;1.77;;;;;;;1.97;100.00;100144.38;5092145;28;20081;-74
2023/11/29 05:28:31;;;;;;;12.27;1.13;;;;;;;2.00;100.00;100137.16;5092325;28;20036;-75
2023/11/29 05:30:56;;;;;;;5.35;1.00;;;;;;;2.00;100.00;100124.03;5092882;28;20038;-73
2023/11/29 05:33:22;;;;;;;9.07;1.10;;;;;;;2.01;100.00;100120.47;5074528;28;20371;-74
2023/11/29 05:35:48;;;;;;;9.77;0.93;;;;;;;1.97;100.00;100126.88;5092543;28;20164;-75
2023/11/29 05:38:13;;;;;;;10.32;1.63;;;;;;;1.94;100.00;100124.41;5091917;28;20464;-75
2023/11/29 05:40:38;;;;;;;12.43;1.30;;;;;;;1.89;100.00;100126.53;5091955;28;20024;-74
2023/11/29 05:43:04;;;;;;;6.60;1.35;;;;;;;1.94;100.00;100134.91;5092180;28;20069;-74
2023/11/29 05:45:29;;;;;;;15.80;1.63;;;;;;;1.94;100.00;100141.03;5092477;28;20115;-75
2023/11/29 05:47:54;;;;;;;4.32;1.15;;;;;;;2.04;100.00;100143.88;5092910;28;20528;-74
2023/11/29 05:50:20;;;;;;;13.95;1.70;;;;;;;2.11;100.00;100139.06;5092529;28;20519;-74
2023/11/29 05:52:45;;;;;;;9.60;1.55;;;;;;;2.17;100.00;100143.91;5092383;28;20422;-74
2023/11/29 05:55:11;;;;;;;11.45;1.35;;;;;;;2.22;100.00;100154.09;5096333;28;20032;-75
2023/11/29 05:57:37;;;;;;;6.63;1.30;;;;;;;2.25;100.00;100159.16;5096152;28;20028;-74
2023/11/29 06:00:09;;;;;;;8.10;1.50;;;;;;;2.38;100.00;100156.56;5096197;28;20024;-75
2023/11/29 06:02:35;;;;;;;10.95;1.70;;;;;;;2.44;100.00;100162.22;5096533;28;20052;-74
2023/11/29 06:05:02;;;;;;;12.63;1.48;;;;;;;2.52;100.00;100161.69;5096197;28;20463;-74
2023/11/29 06:07:27;;;;;;;10.88;1.58;;;;;;;2.53;100.00;100165.19;5096087;28;20040;-74
2023/11/29 06:09:52;;;;;;;8.48;1.02;;;;;;;2.49;100.00;100159.28;5095758;28;20529;-74
2023/11/29 06:12:18;;;;;;;5.90;1.20;;;;;;;2.45;100.00;100157.81;5095991;28;20463;-77
2023/11/29 06:14:43;;;;;;;10.35;1.60;;;;;;;2.48;100.00;100160.25;5096041;28;20465;-74
2023/11/29 06:17:09;;;;;;;6.40;1.80;;;;;;;2.47;100.00;100161.19;5095961;28;20100;-74
2023/11/29 06:19:34;;;;;;;5.80;1.70;;;;;;;2.43;100.00;100168.44;5095500;28;20210;-74
2023/11/29 06:21:59;;;;;;;8.77;1.30;;;;;;;2.39;100.00;100164.31;5095530;28;20064;-74
2023/11/29 06:24:25;;;;;;;8.95;1.60;;;;;;;2.50;100.00;100178.53;5095837;28;20028;-74
2023/11/29 06:26:50;;;;;;;8.65;1.50;;;;;;;2.57;100.00;100196.38;5095353;28;20518;-75
2023/11/29 06:29:16;;;;;;;12.45;1.52;;;;;;;2.57;100.00;100208.69;5095606;28;20032;-77
2023/11/29 06:31:41;;;;;;;11.02;1.77;;;;;;;2.53;100.00;100215.91;5095786;28;20111;-75
2023/11/29 06:34:07;;;;;;;7.15;1.40;;;;;;;2.48;100.00;100220.63;5095418;28;20123;-76
2023/11/29 06:36:34;;;;;;;8.73;1.60;;;;;;;2.40;100.00;100223.75;5095339;28;20529;-75
2023/11/29 06:39:00;;;;;;;7.05;1.73;;;;;;;2.27;100.00;100217.66;5095266;28;20028;-76
2023/11/29 06:41:25;;;;;;;10.25;1.40;;;;;;;2.16;100.00;100226.22;5095698;28;20025;-75
2023/11/29 06:43:52;;;;;;;12.02;1.67;;;;;;;2.03;100.00;100222.69;5077069;28;20120;-76
2023/11/29 06:46:17;;;;;;;7.65;1.65;;;;;;;1.90;100.00;100230.53;5095530;28;20032;-75
2023/11/29 06:48:43;;;;;;;15.10;1.80;;;;;;;1.77;100.00;100233.91;5095762;28;20059;-75
2023/11/29 06:51:08;;;;;;;3.63;1.30;;;;;;;1.67;100.00;100231.97;5095536;28;20125;-75
2023/11/29 06:53:35;;;;;;;2.47;1.00;;;;;;;1.58;100.00;100230.78;5094923;28;20051;-74
2023/11/29 06:56:01;;;;;;;8.57;1.58;;;;;;;1.49;100.00;100229.56;5095148;28;20043;-75
2023/11/29 06:58:26;;;;;;;6.90;1.52;;;;;;;1.38;100.00;100237.28;5095115;28;20118;-75
2023/11/29 07:00:53;;;;;;;7.00;1.10;;;;;;;1.26;100.00;100241.50;5094641;28;20101;-76
2023/11/29 07:03:18;;;;;;;7.97;1.42;;;;;;;1.21;100.00;100243.56;5076801;28;20040;-75
2023/11/29 07:05:44;;;;;;;11.30;1.30;;;;;;;1.19;100.00;100254.09;5094310;28;20104;-75
2023/11/29 07:08:09;;;;;;;6.97;1.23;;;;;;;1.20;100.00;100257.59;5094635;28;20162;-75
2023/11/29 07:10:34;;;;;;;7.53;1.55;;;;;;;1.22;100.00;100253.94;5094838;28;20056;-76
2023/11/29 07:13:00;;;;;;;8.32;1.38;;;;;;;1.23;100.00;100262.66;5094374;28;20070;-75
2023/11/29 07:15:25;;;;;;;9.90;1.75;;;;;;;1.32;100.00;100269.13;5076381;28;20031;-75
2023/11/29 07:17:51;;;;;;;9.80;1.63;;;;;;;1.36;100.00;100266.22;5094623;28;20028;-74
2023/11/29 07:20:17;;;;;;;12.00;1.20;;;;;;;1.40;100.00;100266.84;5095173;28;20036;-75
2023/11/29 07:22:43;;;;;;;5.55;1.13;;;;;;;1.48;100.00;100269.84;5076401;28;20024;-75
2023/11/29 07:25:08;;;;;;;3.97;1.20;;;;;;;1.61;100.00;100271.72;5094796;28;20168;-75
2023/11/29 07:27:33;;;;;;;5.40;1.50;;;;;;;1.67;100.00;100266.94;5094324;28;20476;-75
2023/11/29 07:29:59;;;;;;;8.35;1.98;;;;;;;1.71;100.00;100273.66;5094511;28;20024;-74
2023/11/29 07:32:25;;;;;;;8.63;1.60;;;;;;;1.79;100.00;100280.22;5094503;28;20063;-77
2023/11/29 07:34:51;;;;;;;5.40;1.35;;;;;;;1.87;100.00;100281.41;5094241;28;20421;-74
2023/11/29 07:37:20;;;;;;;9.07;1.67;;;;;;;1.93;100.00;100285.44;5094036;28;20024;-78
2023/11/29 07:39:46;;;;;;;5.13;1.45;;;;;;;1.96;100.00;100279.13;5093832;28;20028;-76
2023/11/29 07:42:12;;;;;;;10.65;1.70;;;;;;;1.97;100.00;100293.94;5093880;28;20046;-76
2023/11/29 07:44:38;;;;;;;6.40;1.25;;;;;;;2.02;100.00;100297.97;5093809;28;20093;-73
2023/11/29 07:47:04;;;;;;;8.60;1.40;;;;;;;2.06;100.00;100296.84;5094036;28;20153;-73
2023/11/29 07:49:30;;;;;;;11.27;1.48;;;;;;;2.05;100.00;100304.81;5094096;28;20520;-77
2023/11/29 07:51:56;;;;;;;9.43;1.48;;;;;;;2.03;100.00;100304.06;5093591;28;20361;-76
2023/11/29 07:54:21;;;;;;;4.28;1.02;;;;;;;2.02;100.00;100313.72;5093539;28;20054;-75
2023/11/29 07:56:47;;;;;;;6.40;1.55;;;;;;;1.98;100.00;100312.22;5075145;28;20032;-75
2023/11/29 07:59:12;;;;;;;5.28;1.50;;;;;;;1.99;100.00;100313.09;5093345;28;20056;-77
2023/11/29 08:01:39;;;;;;;11.15;2.20;;;;;;;2.07;100.00;100332.63;5093107;28;20121;-75
2023/11/29 08:04:04;;;;;;;15.10;2.67;;;;;;;2.14;100.00;100342.75;5093381;28;20032;-77
2023/11/29 08:06:30;;;;;;;10.73;2.65;;;;;;;2.21;100.00;100346.66;5093298;28;20481;-75
2023/11/29 08:08:56;;;;;;;7.15;1.48;;;;;;;2.27;100.00;100356.81;5093270;28;20432;-79
2023/11/29 08:11:22;;;;;;;7.57;2.13;;;;;;;2.27;100.00;100362.03;5093284;28;20032;-80
2023/11/29 08:13:47;;;;;;;7.25;2.03;;;;;;;2.27;100.00;100359.44;5092831;28;20341;-77
2023/11/29 08:16:13;;;;;;;4.53;1.60;;;;;;;2.23;100.00;100377.13;5092599;28;20348;-77
2023/11/29 08:18:38;;;;;;;5.05;1.63;;;;;;;2.16;100.00;100369.75;5093477;28;20039;-78
2023/11/29 08:21:03;;;;;;;9.23;2.45;;;;;;;2.07;100.00;100372.00;5093583;28;20454;-79
2023/11/29 08:23:29;;;;;;;4.40;1.60;;;;;;;1.98;100.00;100377.00;5093972;28;20028;-77
2023/11/29 08:25:54;;;;;;;12.25;2.10;;;;;;;1.86;100.00;100381.22;5093722;28;20028;-77
2023/11/29 08:28:19;;;;;;;18.70;8.43;;;;;;;1.79;100.00;100395.63;5094212;28;20043;-77
2023/11/29 08:30:45;;;;;;;4.60;2.30;;;;;;;1.76;100.00;100394.91;5093753;28;20409;-78
2023/11/29 08:33:10;;;;;;;7.07;2.80;;;;;;;1.74;100.00;100398.53;5094053;28;20028;-78
2023/11/29 08:35:36;;;;;;;4.95;1.50;;;;;;;1.73;100.00;100389.84;5094198;28;20051;-75
2023/11/29 08:38:01;;;;;;;5.68;1.80;;;;;;;1.73;100.00;100399.47;5075348;28;20049;-77
2023/11/29 08:40:27;;;;;;;7.30;1.50;;;;;;;1.71;100.00;100391.69;5093613;28;20044;-75
2023/11/29 08:42:52;;;;;;;8.45;2.13;;;;;;;1.67;100.00;100392.84;5093785;28;20024;-75
2023/11/29 08:45:18;;;;;;;9.52;2.10;;;;;;;1.59;100.00;100393.28;5093201;28;20036;-76
2023/11/29 08:47:43;;;;;;;6.32;1.75;;;;;;;1.51;100.00;100394.69;5093807;28;20119;-76
2023/11/29 08:50:09;;;;;;;7.65;1.70;;;;;;;1.49;100.00;100386.06;5094341;28;20444;-76
2023/11/29 08:52:35;;;;;;;9.93;1.83;;;;;;;1.47;100.00;100396.63;5093850;28;20036;-77
2023/11/29 08:55:00;;;;;;;3.63;1.20;;;;;;;1.43;100.00;100395.13;5075892;28;20078;-77
2023/11/29 08:57:26;;;;;;;7.95;1.80;;;;;;;1.47;100.00;100393.19;5094207;28;20039;-76
2023/11/29 08:59:52;;;;;;;8.85;2.10;;;;;;;1.64;100.00;100392.16;5093386;28;20116;-76
2023/11/29 09:02:21;;;;;;;10.25;2.25;;;;;;;1.94;100.00;100394.69;5093322;28;20108;-76
2023/11/29 09:04:48;;;;;;;10.75;1.98;;;;;;;2.29;100.00;100404.78;5093779;28;20465;-75
2023/11/29 09:07:13;;;;;;;6.88;1.38;;;;;;;2.60;100.00;100408.09;5094192;28;20039;-75
2023/11/29 09:09:45;;;;;;;10.45;1.60;;;;;;;2.75;100.00;100414.16;5094011;28;20048;-76
2023/11/29 09:12:15;;;;;;;10.05;1.88;;;;;;;2.79;100.00;100420.88;5075798;28;20372;-75
2023/11/29 09:14:40;;;;;;;7.97;1.90;;;;;;;2.69;100.00;100420.66;5093965;28;20032;-75
2023/11/29 09:17:06;;;;;;;5.45;1.77;;;;;;;2.57;100.00;100418.81;5093449;28;20043;-75
2023/11/29 09:19:34;;;;;;;13.80;2.03;;;;;;;2.47;100.00;100416.75;5093076;28;20468;-76
2023/11/29 09:22:01;;;;;;;11.32;1.92;;;;;;;2.35;100.00;100422.78;5075708;28;20418;-75
2023/11/29 09:24:27;;;;;;;10.73;1.65;;;;;;;2.22;100.00;100427.94;5093312;28;20388;-75
2023/11/29 09:26:54;;;;;;;5.22;1.48;;;;;;;2.09;100.00;100416.50;5093419;28;20032;-76
2023/11/29 09:29:20;;;;;;;9.43;1.92;;;;;;;1.99;100.00;100413.63;5092542;28;20525;-75
2023/11/29 09:31:45;;;;;;;4.28;1.30;;;;;;;1.88;100.00;100414.28;5093300;28;20033;-76
2023/11/29 09:34:10;;;;;;;5.43;1.50;;;;;;;1.76;100.00;100415.88;5093693;28;20115;-78
2023/11/29 09:36:36;;;;;;;3.70;1.33;;;;;;;1.70;100.00;100421.50;5093532;28;20438;-76
2023/11/29 09:39:11;;;;;;;4.13;1.52;;;;;;;1.73;100.00;100415.19;5093445;28;20082;-77
2023/11/29 09:41:37;;;;;;;2.80;1.20;;;;;;;1.78;100.00;100418.41;5075737;28;20101;-74
2023/11/29 09:44:03;;;;;;;4.63;1.75;;;;;;;1.93;100.00;100422.72;5093497;28;20028;-76
2023/11/29 09:46:30;;;;;;;5.00;1.50;;;;;;;2.23;100.00;100420.94;5093172;28;20035;-75
2023/11/29 09:48:56;;;;;;;2.33;1.55;;;;;;;2.66;100.00;100410.34;5093098;28;20024;-76
2023/11/29 09:51:21;;;;;;;2.83;1.15;;;;;;;2.97;100.00;100418.84;5093589;28;20467;-75
2023/11/29 09:53:47;;;;;;;6.18;1.45;;;;;;;3.06;100.00;100410.38;5093023;28;20032;-75
2023/11/29 09:56:12;;;;;;;3.88;1.30;;;;;;;3.06;100.00;100420.03;5093312;28;20040;-75
2023/11/29 09:58:38;;;;;;;4.85;1.48;;;;;;;2.98;100.00;100428.41;5093156;28;20048;-75
2023/11/29 10:01:03;;;;;;;7.03;1.30;;;;;;;2.89;100.00;100434.28;5092538;28;20032;-75
2023/11/29 10:03:29;;;;;;;7.80;1.45;;;;;;;2.76;100.00;100434.22;5093199;28;20067;-76
2023/11/29 10:05:54;;;;;;;4.50;1.30;;;;;;;2.61;100.00;100442.16;5093396;28;20063;-74
2023/11/29 10:08:19;;;;;;;7.63;1.90;;;;;;;2.52;100.00;100442.72;5095695;28;20040;-74
2023/11/29 10:10:46;;;;;;;5.05;2.08;;;;;;;2.47;100.00;100448.25;5092764;28;20036;-78
2023/11/29 10:13:13;;;;;;;10.13;1.90;;;;;;;2.43;100.00;100449.41;5093322;28;20032;-75
2023/11/29 10:15:43;;;;;;;5.85;1.60;;;;;;;2.47;100.00;100447.44;5092492;28;20048;-78
2023/11/29 10:18:09;;;;;;;4.60;1.30;;;;;;;2.51;100.00;100451.56;5092619;28;20028;-76
2023/11/29 10:20:35;;;;;;;4.10;1.10;;;;;;;2.54;100.00;100440.84;5092456;28;20034;-77
2023/11/29 10:23:00;;;;;;;4.03;1.52;;;;;;;2.52;100.00;100439.25;5092384;28;20039;-77
2023/11/29 10:25:26;;;;;;;7.82;1.88;;;;;;;2.40;100.00;100428.56;5092451;28;20028;-78
2023/11/29 10:27:53;;;;;;;3.08;1.15;;;;;;;2.33;100.00;100427.28;5092256;28;20039;-76
2023/11/29 10:30:18;;;;;;;4.45;1.30;;;;;;;2.27;100.00;100425.88;5073033;28;20043;-76
2023/11/29 10:32:44;;;;;;;5.57;1.40;;;;;;;2.30;100.00;100435.38;5092321;28;20349;-74
2023/11/29 10:35:13;;;;;;;5.10;1.50;;;;;;;2.40;100.00;100425.94;5092600;28;20108;-76
2023/11/29 10:37:44;;;;;;;4.22;1.40;;;;;;;2.55;100.00;100429.38;5092360;28;20345;-75
2023/11/29 10:40:15;;;;;;;4.20;1.20;;;;;;;2.77;100.00;100417.53;5094880;28;20031;-76
2023/11/29 10:42:45;;;;;;;4.05;1.17;;;;;;;3.05;100.00;100427.06;5096323;28;20026;-76
2023/11/29 10:45:17;;;;;;;3.00;1.10;;;;;;;3.33;100.00;100425.25;5096171;28;20097;-76
2023/11/29 10:48:01;;;;;;;4.13;1.20;;;;;;;3.70;100.00;100422.75;5096008;28;20115;-80
2023/11/29 10:50:28;;;;;;;9.80;1.30;;;;;;;4.34;100.00;100429.75;5096268;28;20027;-80
2023/11/29 10:52:54;;;;;;;5.50;1.10;;;;;;;4.91;100.00;100417.75;5078442;28;20024;-77
2023/11/29 10:55:21;;;;;;;4.85;0.70;;;;;;;5.27;100.00;100419.47;5096304;28;20128;-76
2023/11/29 10:57:51;;;;;;;3.47;0.80;;;;;;;5.44;100.00;100417.34;5095488;28;20387;-75
2023/11/29 11:00:18;;;;;;;5.45;1.17;;;;;;;5.36;100.00;100417.06;5096445;28;20028;-76
2023/11/29 11:02:48;;;;;;;6.70;1.67;;;;;;;5.14;100.00;100423.13;5096275;28;20047;-74
2023/11/29 11:05:17;;;;;;;6.85;2.65;;;;;;;5.08;100.00;100413.88;5095430;28;20032;-73
2023/11/29 11:07:46;;;;;;;3.13;1.45;;;;;;;5.33;100.00;100422.56;5096306;28;20028;-77
2023/11/29 11:10:14;;;;;;;4.50;1.52;;;;;;;5.62;100.00;100420.38;5095462;28;20028;-76
2023/11/29 11:12:44;;;;;;;4.55;1.50;;;;;;;5.70;100.00;100422.44;5095570;28;20111;-76
2023/11/29 11:15:19;;;;;;;3.03;1.48;;;;;;;5.48;100.00;100419.63;5095537;28;20046;-75
2023/11/29 11:18:05;;;;;;;7.53;1.20;;;;;;;5.06;100.00;100435.09;5095849;28;20147;-76